Time;durP1;ratioP1;P1;durP2;ratioP2;P2;SDS_P1;SDS_P2;PMS_P1;PMS_P2;Temp;Humidity;BMP_temperature;BMP_pressure;BME280_temperature;BME280_humidity;BME280_pressure;Samples;Min_cycle;Max_cycle;Signal;HPM_P1;HPM_P2
2022/08/14 00:00:15;;;;;;;17.50;8.85;;;;;;;23.52;49.57;101120.53;4933946;29;20024;-75
2022/08/14 00:02:41;;;;;;;16.92;8.57;;;;;;;23.47;49.80;101119.69;4933916;29;20475;-75
2022/08/14 00:05:15;;;;;;;13.60;9.18;;;;;;;23.37;50.30;101121.22;4933509;29;20138;-75
2022/08/14 00:07:40;;;;;;;17.65;9.55;;;;;;;23.34;50.62;101120.94;4933729;29;20043;-77
2022/08/14 00:10:09;;;;;;;23.02;8.80;;;;;;;23.36;49.98;101118.75;4933985;29;20035;-75
2022/08/14 00:12:37;;;;;;;12.65;8.70;;;;;;;23.39;49.86;101110.81;4933150;29;20028;-73
2022/08/14 00:15:29;;;;;;;17.10;8.50;;;;;;;23.40;49.90;101106.16;4931703;29;20040;-77
2022/08/14 00:17:55;;;;;;;17.95;8.20;;;;;;;23.37;50.08;101098.44;4932459;29;20039;-74
2022/08/14 00:20:27;;;;;;;16.35;8.27;;;;;;;23.37;50.21;101102.00;4932973;29;20446;-75
2022/08/14 00:22:52;;;;;;;16.70;9.25;;;;;;;23.35;50.19;101093.19;4933164;29;20047;-75
2022/08/14 00:25:18;;;;;;;17.77;8.93;;;;;;;23.33;50.15;101089.91;4933218;29;20079;-75
2022/08/14 00:27:44;;;;;;;14.27;9.23;;;;;;;23.31;50.51;101094.81;4933354;29;20032;-76
2022/08/14 00:30:11;;;;;;;19.98;9.07;;;;;;;23.30;50.70;101087.69;4932932;29;20026;-75
2022/08/14 00:32:37;;;;;;;16.98;9.02;;;;;;;23.26;50.93;101089.28;4932787;29;20055;-75
2022/08/14 00:35:04;;;;;;;22.35;9.77;;;;;;;23.27;50.74;101092.84;4932778;29;20500;-75
2022/08/14 00:37:30;;;;;;;15.98;9.30;;;;;;;23.19;51.38;101085.91;4931586;29;20035;-76
2022/08/14 00:39:55;;;;;;;22.00;9.15;;;;;;;23.15;51.63;101082.03;4932983;29;20032;-74
2022/08/14 00:42:22;;;;;;;18.17;9.07;;;;;;;23.12;51.45;101082.56;4932978;29;20036;-75
2022/08/14 00:44:47;;;;;;;18.20;9.18;;;;;;;23.10;51.58;101082.00;4934126;29;20036;-75
2022/08/14 00:47:14;;;;;;;20.88;9.20;;;;;;;23.12;51.46;101074.31;4934422;29;20078;-75
2022/08/14 00:49:40;;;;;;;16.60;9.88;;;;;;;23.09;51.45;101077.56;4932453;29;20031;-75
2022/08/14 00:52:05;;;;;;;16.73;9.55;;;;;;;23.03;51.80;101062.97;4932968;29;20151;-76
2022/08/14 00:54:31;;;;;;;15.45;8.98;;;;;;;22.98;51.87;101061.00;4931794;29;20372;-75
2022/08/14 00:56:57;;;;;;;27.02;9.45;;;;;;;22.96;52.01;101067.81;4931418;29;20079;-74
2022/08/14 00:59:24;;;;;;;17.48;9.55;;;;;;;22.99;52.15;101059.09;4935892;29;20049;-76
2022/08/14 01:01:50;;;;;;;16.63;8.93;;;;;;;22.99;52.23;101061.84;4937411;29;20031;-75
2022/08/14 01:04:15;;;;;;;14.82;9.65;;;;;;;22.93;52.49;101055.44;4937276;29;20395;-74
2022/08/14 01:06:41;;;;;;;24.50;10.43;;;;;;;22.89;52.29;101050.72;4934665;29;20106;-75
2022/08/14 01:09:07;;;;;;;13.88;9.32;;;;;;;22.88;52.04;101047.16;4934978;29;20372;-75
2022/08/14 01:11:36;;;;;;;19.83;9.38;;;;;;;22.87;51.88;101042.75;4936154;29;20082;-75
2022/08/14 01:14:03;;;;;;;14.63;9.15;;;;;;;22.90;51.86;101053.19;4935869;29;20341;-75
2022/08/14 01:16:29;;;;;;;18.95;10.00;;;;;;;22.84;52.14;101037.78;4936089;29;20024;-75
2022/08/14 01:21:39;;;;;;;23.05;9.45;;;;;;;22.91;52.17;101038.41;4936288;29;20135;-74
2022/08/14 01:24:06;;;;;;;18.58;9.25;;;;;;;22.84;52.51;101043.28;4935529;29;20094;-74
2022/08/14 01:26:34;;;;;;;19.75;9.45;;;;;;;22.80;52.73;101031.13;4935719;29;20039;-74
2022/08/14 01:28:59;;;;;;;;;;;;;;;22.84;52.43;101037.78;4936193;29;20427;-74
2022/08/14 01:31:28;;;;;;;19.10;9.90;;;;;;;22.84;52.26;101034.22;4935727;29;19922;-75
2022/08/14 01:33:55;;;;;;;16.52;10.25;;;;;;;22.85;51.85;101028.44;4935219;29;20043;-75
2022/08/14 01:36:22;;;;;;;;;;;;;;;22.79;52.26;101024.81;4936211;29;20046;-75
2022/08/14 01:38:49;;;;;;;20.05;10.05;;;;;;;22.81;52.54;101024.59;4936070;29;19911;-76
2022/08/14 01:41:19;;;;;;;22.23;10.60;;;;;;;22.80;52.15;101022.91;4935822;29;20028;-74
2022/08/14 01:43:47;;;;;;;17.92;10.48;;;;;;;22.78;52.18;101016.88;4935649;29;20095;-74
2022/08/14 01:46:14;;;;;;;23.38;10.80;;;;;;;22.72;52.35;101020.63;4936744;29;20169;-75
2022/08/14 01:48:43;;;;;;;20.13;10.93;;;;;;;22.73;52.43;101022.31;4937230;29;20028;-76
2022/08/14 01:51:10;;;;;;;18.02;10.80;;;;;;;22.75;52.16;101025.63;4936530;29;20399;-75
2022/08/14 01:53:35;;;;;;;26.45;11.38;;;;;;;22.72;52.45;101018.75;4935510;29;20391;-74
2022/08/14 01:56:03;;;;;;;17.65;11.68;;;;;;;22.62;52.86;101013.16;4936128;29;20028;-77
2022/08/14 01:58:29;;;;;;;21.02;12.80;;;;;;;22.56;52.92;101017.75;4935518;29;20027;-74
2022/08/14 02:00:55;;;;;;;18.25;11.70;;;;;;;22.51;53.49;101017.69;4935572;29;20034;-75
2022/08/14 02:03:29;;;;;;;19.48;11.98;;;;;;;22.43;53.72;101012.63;4934185;29;20086;-75
2022/08/14 02:05:57;;;;;;;20.67;12.60;;;;;;;22.35;53.95;101013.94;4935524;29;20491;-75
2022/08/14 02:08:25;;;;;;;23.70;12.05;;;;;;;22.34;54.34;101011.44;4934563;29;20024;-75
2022/08/14 02:11:15;;;;;;;23.10;12.10;;;;;;;22.32;54.26;101006.22;4933227;29;20107;-76
2022/08/14 02:13:37;;;;;;;;;;;;;;;22.26;54.28;100995.44;4935458;29;20046;-76
2022/08/14 02:16:03;;;;;;;21.95;12.32;;;;;;;22.23;54.46;100996.78;4935124;29;19910;-74
2022/08/14 02:18:29;;;;;;;28.42;12.50;;;;;;;22.21;54.48;100998.13;4934776;29;20079;-74
2022/08/14 02:20:55;;;;;;;28.77;12.40;;;;;;;22.18;54.50;100990.41;4934904;29;20027;-75
2022/08/14 02:23:20;;;;;;;23.25;13.38;;;;;;;22.13;54.81;100989.22;4935198;29;20058;-75
2022/08/14 02:25:46;;;;;;;29.13;13.23;;;;;;;22.05;55.29;100981.47;4934840;29;20483;-74
2022/08/14 02:28:11;;;;;;;27.65;13.82;;;;;;;22.03;55.22;100978.16;4933028;29;20039;-76
2022/08/14 02:30:36;;;;;;;23.75;12.77;;;;;;;22.01;55.47;100985.81;4934478;29;20063;-75
2022/08/14 02:33:04;;;;;;;24.45;13.40;;;;;;;22.03;55.22;100983.63;4934781;29;20380;-75
2022/08/14 02:35:29;;;;;;;;;;;;;;;21.94;55.34;100984.34;4934690;29;20051;-75
2022/08/14 02:37:54;;;;;;;23.02;12.32;;;;;;;21.92;55.44;100979.09;4934736;29;19919;-75
2022/08/14 02:40:20;;;;;;;29.15;14.25;;;;;;;21.90;55.67;100971.13;4935910;29;20479;-75
2022/08/14 02:42:46;;;;;;;26.30;14.95;;;;;;;21.85;55.69;100971.09;4934872;29;20534;-75
2022/08/14 02:45:12;;;;;;;23.45;13.25;;;;;;;21.81;55.85;100971.84;4934365;29;20035;-74
2022/08/14 02:47:37;;;;;;;29.00;13.60;;;;;;;21.83;55.94;100972.41;4934232;29;20071;-75
2022/08/14 02:50:03;;;;;;;24.95;14.07;;;;;;;21.77;56.04;100970.69;4934353;29;20091;-75
2022/08/14 02:52:29;;;;;;;24.50;13.88;;;;;;;21.74;56.18;100972.00;4936123;29;20027;-75
2022/08/14 02:54:56;;;;;;;23.95;14.68;;;;;;;21.64;56.20;100966.38;4934390;29;20042;-75
2022/08/14 02:57:22;;;;;;;31.17;15.37;;;;;;;21.64;56.13;100966.38;4934304;29;20483;-75
2022/08/14 02:59:48;;;;;;;22.85;14.52;;;;;;;21.61;56.60;100954.03;4934892;29;20295;-74
2022/08/14 03:02:14;;;;;;;24.48;14.18;;;;;;;21.59;56.67;100947.16;4935811;29;20111;-75
2022/08/14 03:04:39;;;;;;;24.85;14.57;;;;;;;21.55;56.57;100946.00;4934922;29;20032;-76
2022/08/14 03:07:05;;;;;;;28.40;15.57;;;;;;;21.54;56.60;100952.53;4933831;29;20514;-75
2022/08/14 03:09:31;;;;;;;28.02;15.30;;;;;;;21.45;56.56;100955.72;4933546;29;20178;-74
2022/08/14 03:11:57;;;;;;;28.60;15.73;;;;;;;21.44;56.89;100948.59;4934265;29;20372;-74
2022/08/14 03:14:24;;;;;;;26.05;14.07;;;;;;;21.38;57.27;100943.28;4933727;29;20024;-74
2022/08/14 03:16:50;;;;;;;29.50;15.63;;;;;;;21.38;56.92;100943.28;4933834;29;20024;-75
2022/08/14 03:19:16;;;;;;;27.75;15.32;;;;;;;21.37;57.31;100949.81;4933854;29;20031;-75
2022/08/14 03:21:42;;;;;;;29.60;15.32;;;;;;;21.32;57.11;100941.53;4934905;29;20032;-74
2022/08/14 03:24:11;;;;;;;24.60;15.25;;;;;;;21.31;57.24;100948.09;4935197;29;20411;-75
2022/08/14 03:26:38;;;;;;;25.15;14.75;;;;;;;21.25;57.79;100949.94;4934524;29;20062;-73
2022/08/14 03:29:05;;;;;;;27.77;15.57;;;;;;;21.19;57.73;100943.53;4933343;29;20031;-76
2022/08/14 03:31:31;;;;;;;31.13;15.73;;;;;;;21.13;58.36;100940.97;4934847;29;20127;-75
2022/08/14 03:33:57;;;;;;;23.48;15.25;;;;;;;21.09;57.93;100937.91;4934944;29;20103;-76
2022/08/14 03:36:23;;;;;;;35.60;18.00;;;;;;;21.11;57.98;100943.94;4933610;29;20034;-75
2022/08/14 03:38:52;;;;;;;26.42;14.63;;;;;;;21.09;58.41;100946.13;4933706;29;20435;-74
2022/08/14 03:41:21;;;;;;;32.65;16.40;;;;;;;20.97;58.71;100942.63;4934034;29;20043;-75
2022/08/14 03:43:48;;;;;;;24.67;14.80;;;;;;;20.93;59.16;100941.47;4933684;29;20028;-74
2022/08/14 03:46:14;;;;;;;29.48;17.58;;;;;;;20.99;59.19;100940.50;4931946;29;20020;-75
2022/08/14 03:48:40;;;;;;;29.48;15.95;;;;;;;20.98;58.99;100938.81;4933587;29;20036;-76
2022/08/14 03:51:07;;;;;;;27.83;15.88;;;;;;;20.86;59.10;100940.81;4933189;29;20063;-74
2022/08/14 03:53:37;;;;;;;30.58;16.70;;;;;;;20.88;59.17;100941.38;4933612;29;20028;-75
2022/08/14 03:56:06;;;;;;;27.67;15.80;;;;;;;20.77;59.87;100940.38;4933362;29;20034;-75
2022/08/14 03:58:32;;;;;;;30.63;17.38;;;;;;;20.80;59.85;100931.66;4933464;29;20031;-75
2022/08/14 04:01:01;;;;;;;31.88;17.05;;;;;;;20.77;59.73;100929.44;4933431;29;20036;-75
2022/08/14 04:03:27;;;;;;;24.30;15.75;;;;;;;20.72;60.18;100932.94;4933679;29;20023;-76
2022/08/14 04:05:52;;;;;;;34.85;16.33;;;;;;;20.67;60.45;100934.72;4933315;29;20024;-75
2022/08/14 04:08:19;;;;;;;31.10;16.38;;;;;;;20.70;59.97;100932.34;4935004;29;20475;-75
2022/08/14 04:10:45;;;;;;;29.55;16.20;;;;;;;20.70;60.10;100924.16;4937466;29;20024;-75
2022/08/14 04:13:11;;;;;;;27.58;15.90;;;;;;;20.65;60.59;100926.78;4933882;29;20024;-76
2022/08/14 04:15:36;;;;;;;31.45;17.10;;;;;;;20.58;60.45;100921.47;4934444;29;20036;-76
2022/08/14 04:18:05;;;;;;;27.80;17.02;;;;;;;20.58;60.32;100923.38;4933972;29;20137;-76
2022/08/14 04:20:31;;;;;;;30.13;16.75;;;;;;;20.57;60.91;100924.47;4933331;29;20028;-75
2022/08/14 04:22:56;;;;;;;33.83;17.17;;;;;;;20.45;60.97;100923.66;4933218;29;20035;-76
2022/08/14 04:25:21;;;;;;;27.70;16.88;;;;;;;20.36;61.14;100920.50;4934159;29;20042;-74
2022/08/14 04:27:47;;;;;;;37.72;17.20;;;;;;;20.36;61.67;100921.31;4934369;29;20119;-74
2022/08/14 04:30:12;;;;;;;30.35;18.08;;;;;;;20.30;61.70;100922.31;4933404;29;20058;-75
2022/08/14 04:32:37;;;;;;;32.25;18.42;;;;;;;20.26;62.17;100921.13;4933099;29;20118;-75
2022/08/14 04:35:03;;;;;;;42.45;18.58;;;;;;;20.28;61.67;100916.25;4936037;29;20055;-74
2022/08/14 04:45:42;;;;;;;31.67;17.83;;;;;;;20.11;62.83;100908.00;4936958;29;20051;-75
2022/08/14 04:48:11;;;;;;;28.13;16.55;;;;;;;20.18;62.97;100899.66;4935035;29;20027;-75
2022/08/14 04:50:47;;;;;;;43.30;18.23;;;;;;;20.29;62.41;100897.94;4936211;29;20047;-75
2022/08/14 04:53:15;;;;;;;29.25;18.88;;;;;;;20.25;62.75;100903.09;4936574;29;20062;-76
2022/08/14 04:55:47;;;;;;;31.83;18.48;;;;;;;20.20;62.75;100896.69;4936453;29;20115;-76
2022/08/14 04:58:17;;;;;;;35.83;19.63;;;;;;;20.18;62.75;100899.66;4936761;29;20040;-75
2022/08/14 05:00:49;;;;;;;29.45;17.80;;;;;;;20.28;63.02;100902.59;4936281;29;20039;-75
2022/08/14 05:03:21;;;;;;;34.28;18.92;;;;;;;20.31;62.98;100904.00;4936234;29;20036;-75
2022/08/14 05:05:50;;;;;;;34.83;17.42;;;;;;;20.35;62.79;100891.47;4936436;29;20028;-74
2022/08/14 05:08:16;;;;;;;37.63;17.90;;;;;;;20.49;62.63;100890.13;4936226;29;20035;-74
2022/08/14 05:10:50;;;;;;;32.55;18.92;;;;;;;20.59;62.01;100884.03;4936042;29;20035;-76
2022/08/14 05:13:19;;;;;;;28.75;17.13;;;;;;;20.61;62.18;100884.59;4935036;29;20032;-76
2022/08/14 05:15:45;;;;;;;29.02;18.15;;;;;;;20.68;61.37;100890.72;4935896;29;20109;-75
2022/08/14 05:18:16;;;;;;;28.85;19.02;;;;;;;20.70;62.04;100885.84;4936117;29;20054;-76
2022/08/14 05:20:45;;;;;;;30.48;17.77;;;;;;;20.79;61.62;100887.09;4935993;29;20027;-76
2022/08/14 05:23:13;;;;;;;33.38;18.02;;;;;;;20.92;61.19;100879.63;4935659;29;20031;-75
2022/08/14 05:25:40;;;;;;;30.00;18.90;;;;;;;20.99;60.65;100877.56;4935740;29;20024;-75
2022/08/14 05:28:10;;;;;;;32.10;17.35;;;;;;;20.99;60.61;100874.81;4935466;29;20460;-77
2022/08/14 05:30:36;;;;;;;26.50;17.15;;;;;;;20.98;60.95;100871.22;4934540;29;20051;-75
2022/08/14 05:33:01;;;;;;;30.48;17.20;;;;;;;21.02;60.54;100875.13;4935657;29;20063;-74
2022/08/14 05:35:27;;;;;;;24.20;17.42;;;;;;;21.07;60.16;100879.88;4935678;29;20582;-75
2022/08/14 05:37:52;;;;;;;34.85;18.75;;;;;;;21.16;60.32;100875.59;4935558;29;20024;-75
2022/08/14 05:40:18;;;;;;;28.08;17.70;;;;;;;21.15;60.30;100876.69;4935431;29;20028;-76
2022/08/14 05:42:43;;;;;;;32.45;18.15;;;;;;;21.20;60.20;100876.78;4935471;29;20023;-74
2022/08/14 05:45:09;;;;;;;29.00;16.58;;;;;;;21.24;59.88;100877.09;4934043;29;20394;-75
2022/08/14 05:47:39;;;;;;;34.25;17.95;;;;;;;21.31;59.80;100874.19;4935207;29;20087;-74
2022/08/14 05:50:09;;;;;;;33.40;17.58;;;;;;;21.41;59.72;100882.56;4935591;29;20027;-76
2022/08/14 05:52:35;;;;;;;42.22;17.85;;;;;;;21.76;59.09;100881.38;4935606;29;20395;-75
2022/08/14 05:55:00;;;;;;;29.98;16.63;;;;;;;22.13;57.97;100879.59;4935292;29;20024;-75
2022/08/14 05:57:26;;;;;;;31.08;17.10;;;;;;;22.65;56.48;100878.19;4935064;29;20463;-74
2022/08/14 05:59:51;;;;;;;33.70;18.80;;;;;;;23.20;54.42;100878.91;4935478;29;20178;-74
2022/08/14 06:02:16;;;;;;;26.95;18.77;;;;;;;23.77;52.39;100875.34;4934916;29;20031;-77
2022/08/14 06:04:47;;;;;;;28.52;17.58;;;;;;;24.44;50.36;100878.25;4934352;29;20039;-75
2022/08/14 06:07:13;;;;;;;31.83;18.55;;;;;;;25.03;49.01;100887.91;4936040;29;20392;-75
2022/08/14 06:09:39;;;;;;;33.08;17.80;;;;;;;25.82;47.94;100886.31;4934886;29;20035;-74
2022/08/14 06:12:05;;;;;;;27.92;17.35;;;;;;;26.55;46.19;100893.94;4935008;29;20042;-75
2022/08/14 06:14:30;;;;;;;33.63;18.30;;;;;;;27.30;43.06;100888.00;4935237;29;20032;-74
2022/08/14 06:16:55;;;;;;;29.60;16.55;;;;;;;27.66;42.90;100884.00;4934963;29;20080;-75
2022/08/14 06:19:21;;;;;;;28.35;15.32;;;;;;;28.50;41.53;100889.78;4934776;29;20043;-76
2022/08/14 06:21:46;;;;;;;35.00;18.13;;;;;;;29.13;39.70;100874.59;4935730;29;20024;-75
2022/08/14 06:24:12;;;;;;;35.35;17.42;;;;;;;29.47;38.39;100870.59;4938489;29;20379;-77
2022/08/14 06:26:37;;;;;;;30.98;18.05;;;;;;;29.44;38.66;100883.13;4939469;29;20114;-75
2022/08/14 06:29:02;;;;;;;33.35;17.08;;;;;;;29.42;38.90;100888.16;4936516;29;20027;-77
2022/08/14 06:31:28;;;;;;;39.60;20.35;;;;;;;28.66;39.73;100888.41;4934946;29;20087;-74
2022/08/14 06:33:53;;;;;;;36.65;19.92;;;;;;;28.69;39.23;100888.91;4934759;29;20154;-75
2022/08/14 06:36:18;;;;;;;26.77;15.88;;;;;;;29.89;37.59;100888.88;4935679;29;20020;-75
2022/08/14 06:38:44;;;;;;;26.88;15.55;;;;;;;30.56;35.88;100890.94;4934968;29;20558;-74
2022/08/14 06:41:09;;;;;;;31.13;17.98;;;;;;;30.43;36.13;100882.66;4934640;29;20495;-73
2022/08/14 06:43:34;;;;;;;28.20;16.23;;;;;;;30.81;35.64;100892.28;4934223;29;20475;-76
2022/08/14 06:46:01;;;;;;;33.57;17.70;;;;;;;30.97;34.47;100889.13;4934307;29;20028;-75
2022/08/14 06:48:27;;;;;;;38.65;16.98;;;;;;;31.14;34.61;100878.06;4933972;29;20115;-75
2022/08/14 06:50:53;;;;;;;28.87;14.83;;;;;;;31.78;33.22;100872.13;4934619;29;20099;-74
2022/08/14 06:53:18;;;;;;;25.70;15.80;;;;;;;32.40;31.32;100872.97;4935780;29;20028;-75
2022/08/14 06:55:45;;;;;;;30.73;16.73;;;;;;;31.65;32.95;100871.09;4935329;29;20488;-75
2022/08/14 06:58:15;;;;;;;34.80;16.85;;;;;;;30.82;33.15;100868.09;4934063;29;20110;-74
2022/08/14 07:05:44;;;;;;;36.15;17.80;;;;;;;30.46;33.58;100862.59;4936799;29;20028;-74
2022/08/14 07:06:13;;;;;;;27.73;14.52;;;;;;;30.78;34.13;100853.16;4934244;29;20051;-75
2022/08/14 07:08:39;;;;;;;27.63;16.57;;;;;;;30.88;33.56;100855.69;4934104;29;20391;-74
2022/08/14 07:11:04;;;;;;;26.37;16.40;;;;;;;30.98;33.43;100847.09;4934048;29;20035;-74
2022/08/14 07:13:30;;;;;;;23.07;15.33;;;;;;;31.08;33.42;100854.34;4934475;29;20082;-75
2022/08/14 07:15:56;;;;;;;21.20;14.23;;;;;;;31.20;33.43;100850.94;4933868;29;20039;-75
2022/08/14 07:18:23;;;;;;;29.50;16.45;;;;;;;31.76;31.90;100854.91;4933794;29;20121;-75
2022/08/14 07:20:49;;;;;;;29.98;17.17;;;;;;;31.37;32.20;100861.31;4934085;29;20359;-75
2022/08/14 07:23:14;;;;;;;32.60;16.10;;;;;;;30.88;33.78;100855.69;4933817;29;20034;-77
2022/08/14 07:25:42;;;;;;;20.97;14.30;;;;;;;31.25;32.93;100862.78;4937866;29;20035;-74
2022/08/14 07:28:11;;;;;;;29.70;17.10;;;;;;;31.23;32.67;100862.25;4934430;29;20024;-74
2022/08/14 07:30:38;;;;;;;30.33;16.73;;;;;;;31.76;32.20;100870.81;4935380;29;20131;-75
2022/08/14 07:33:03;;;;;;;26.23;15.75;;;;;;;32.20;31.62;100863.31;4934393;29;20545;-74
2022/08/14 07:35:29;;;;;;;28.47;14.87;;;;;;;33.51;29.23;100861.03;4935544;29;20075;-75
2022/08/14 07:37:55;;;;;;;31.03;16.43;;;;;;;32.79;30.48;100869.19;4933724;29;20039;-74
2022/08/14 07:40:20;;;;;;;21.67;13.77;;;;;;;33.81;28.54;100865.50;4941239;29;20291;-75
2022/08/14 07:42:45;;;;;;;23.13;14.50;;;;;;;33.88;29.30;100862.16;4934949;29;20038;-75
2022/08/14 07:45:11;;;;;;;27.27;15.03;;;;;;;33.73;29.11;100863.56;4935882;29;20431;-74
2022/08/14 07:47:41;;;;;;;28.17;15.73;;;;;;;32.71;30.78;100870.03;4933395;29;20106;-74
2022/08/14 07:50:13;;;;;;;33.17;16.80;;;;;;;32.21;31.55;100864.97;4933604;29;20019;-75
2022/08/14 07:52:39;;;;;;;30.73;16.70;;;;;;;31.59;32.36;100858.47;4933467;29;20024;-73
2022/08/14 07:55:05;;;;;;;35.03;17.27;;;;;;;31.80;32.61;100855.06;4933250;29;20028;-74
2022/08/14 07:57:30;;;;;;;28.77;14.98;;;;;;;32.92;31.33;100851.44;4932423;29;20049;-74
2022/08/14 07:59:56;;;;;;;32.93;16.10;;;;;;;32.93;31.29;100844.69;4934681;29;20103;-75
2022/08/14 08:02:21;;;;;;;28.27;16.13;;;;;;;32.94;30.79;100840.78;4932894;29;20114;-74
2022/08/14 08:04:50;;;;;;;22.40;14.47;;;;;;;33.15;30.71;100837.25;4916071;29;20078;-75
2022/08/14 08:07:16;;;;;;;27.33;13.27;;;;;;;33.52;30.52;100840.34;4933181;29;20032;-74
2022/08/14 08:09:49;;;;;;;30.10;17.33;;;;;;;33.25;30.72;100845.25;4935987;29;20047;-74
2022/08/14 08:12:16;;;;;;;24.88;15.60;;;;;;;33.31;30.53;100838.34;4935780;29;20037;-74
2022/08/14 08:14:44;;;;;;;25.42;13.25;;;;;;;33.96;29.67;100833.34;4937017;29;20020;-75
2022/08/14 08:17:10;;;;;;;28.55;14.73;;;;;;;33.35;30.64;100836.50;4936303;29;20036;-74
2022/08/14 08:19:37;;;;;;;26.13;14.40;;;;;;;33.72;30.02;100827.63;4936497;29;20035;-74
2022/08/14 08:22:02;;;;;;;25.63;12.85;;;;;;;33.83;29.90;100823.25;4937234;29;20522;-74
2022/08/14 08:24:28;;;;;;;24.20;13.27;;;;;;;34.55;29.43;100823.97;4936829;29;20035;-74
2022/08/14 08:26:53;;;;;;;22.03;13.33;;;;;;;35.06;28.24;100827.34;4937023;29;20467;-74
2022/08/14 08:29:23;;;;;;;30.27;14.53;;;;;;;34.19;28.90;100835.81;4938335;29;20118;-74
2022/08/14 08:31:50;;;;;;;30.77;14.02;;;;;;;34.41;28.63;100824.25;4938476;29;20035;-74
2022/08/14 08:34:16;;;;;;;22.75;14.32;;;;;;;34.09;29.03;100828.66;4936682;29;20052;-75
2022/08/14 08:36:42;;;;;;;22.63;11.20;;;;;;;34.42;29.56;100822.28;4936842;29;20434;-77
2022/08/14 08:39:08;;;;;;;;;;;;;;;34.50;28.56;100818.59;4936856;29;20095;-75
2022/08/14 08:41:44;;;;;;;28.52;12.45;;;;;;;34.70;29.30;100814.13;4937005;29;19910;-75
2022/08/14 08:44:10;;;;;;;;;;;;;;;35.37;26.89;100817.56;4940391;29;20511;-74
2022/08/14 08:46:35;;;;;;;;;;;;;;;35.04;28.24;100818.47;4938522;29;19982;-74
2022/08/14 08:49:00;;;;;;;22.13;11.60;;;;;;;35.09;27.62;100809.88;4937179;29;19915;-76
2022/08/14 08:51:37;;;;;;;21.17;12.10;;;;;;;35.69;27.15;100812.19;4936906;29;20372;-74
2022/08/14 08:54:10;;;;;;;22.10;12.00;;;;;;;35.84;27.17;100814.25;4938143;29;20099;-77
2022/08/14 08:56:45;;;;;;;24.50;11.45;;;;;;;36.34;26.17;100810.13;4936583;29;20039;-74
2022/08/14 08:59:20;;;;;;;27.73;12.30;;;;;;;36.90;25.09;100817.63;4936766;29;20051;-74
2022/08/14 09:01:52;;;;;;;25.98;11.00;;;;;;;37.22;25.74;100815.63;4938860;29;20083;-74
2022/08/14 09:04:21;;;;;;;22.17;12.90;;;;;;;35.61;26.10;100811.97;4936823;29;20069;-75
2022/08/14 09:06:47;;;;;;;23.10;11.20;;;;;;;34.24;27.97;100799.28;4936395;29;20531;-75
2022/08/14 09:09:20;;;;;;;20.50;12.45;;;;;;;34.56;28.04;100806.03;4935350;29;20138;-76
2022/08/14 09:11:45;;;;;;;21.23;10.27;;;;;;;35.27;27.29;100806.84;4935787;29;20431;-75
2022/08/14 09:14:10;;;;;;;18.47;10.40;;;;;;;35.31;26.57;100796.56;4936074;29;20030;-75
2022/08/14 09:16:36;;;;;;;18.87;10.87;;;;;;;34.77;28.02;100796.78;4937330;29;20386;-75
2022/08/14 09:19:01;;;;;;;31.80;11.33;;;;;;;34.94;27.73;100791.78;4935604;29;20035;-76
2022/08/14 09:21:26;;;;;;;24.67;12.27;;;;;;;36.04;26.52;100798.41;4937328;29;20055;-75
2022/08/14 09:23:53;;;;;;;20.43;11.80;;;;;;;36.00;26.17;100795.53;4935560;29;20015;-75
2022/08/14 09:26:19;;;;;;;17.70;11.50;;;;;;;35.17;27.12;100792.16;4936138;29;20107;-75
2022/08/14 09:28:44;;;;;;;18.07;9.53;;;;;;;35.69;27.49;100799.00;4938182;29;20390;-75
2022/08/14 09:31:10;;;;;;;22.03;9.60;;;;;;;36.53;26.13;100795.41;4936806;29;20039;-76
2022/08/14 09:33:40;;;;;;;19.98;9.85;;;;;;;36.42;26.06;100797.13;4934893;29;20103;-76
2022/08/14 09:36:34;;;;;;;21.83;9.18;;;;;;;37.60;24.87;100786.06;4934366;29;20462;-75
2022/08/14 09:39:12;;;;;;;20.00;8.50;;;;;;;38.70;22.95;100783.03;4938148;29;20028;-76
2022/08/14 09:41:58;;;;;;;12.32;8.13;;;;;;;38.99;22.33;100785.16;4935221;29;20107;-75
2022/08/14 09:44:49;;;;;;;17.10;8.98;;;;;;;38.05;22.83;100770.59;4934047;29;20668;-75
2022/08/14 09:47:15;;;;;;;20.65;10.23;;;;;;;37.24;24.83;100765.59;4935597;29;20036;-75
2022/08/14 09:49:41;;;;;;;26.38;10.40;;;;;;;37.03;25.07;100773.50;4935726;29;20023;-74
2022/08/14 09:52:09;;;;;;;17.70;8.20;;;;;;;37.62;24.31;100766.84;4935930;29;20114;-78
2022/08/14 09:54:41;;;;;;;19.55;8.93;;;;;;;38.18;22.95;100760.81;4936108;29;20043;-75
2022/08/14 09:57:09;;;;;;;18.23;8.52;;;;;;;38.52;21.92;100752.59;4939614;29;20102;-77
2022/08/14 09:59:46;;;;;;;9.93;7.85;;;;;;;38.40;22.53;100755.59;4936300;29;20054;-76
2022/08/14 10:02:26;;;;;;;18.35;8.60;;;;;;;38.54;22.34;100753.03;4935234;29;20102;-76
2022/08/14 10:05:00;;;;;;;15.52;8.35;;;;;;;38.71;22.67;100754.56;4935543;29;20420;-75
2022/08/14 10:07:54;;;;;;;16.15;7.18;;;;;;;39.51;21.08;100749.75;4934806;29;20031;-75
2022/08/14 10:10:37;;;;;;;21.75;7.78;;;;;;;39.87;19.91;100744.63;4934433;29;20142;-76
2022/08/14 10:13:04;;;;;;;13.57;7.15;;;;;;;39.08;21.74;100746.31;4934402;29;20043;-75
2022/08/14 10:15:31;;;;;;;15.63;8.10;;;;;;;38.33;21.91;100733.75;4935018;29;20028;-75
2022/08/14 10:18:25;;;;;;;14.63;7.13;;;;;;;38.15;21.96;100730.63;4934961;29;20027;-76
2022/08/14 10:20:59;;;;;;;13.95;6.75;;;;;;;38.70;20.66;100727.59;4933303;29;20503;-76
2022/08/14 10:23:42;;;;;;;9.18;6.28;;;;;;;38.88;20.64;100736.34;4934712;29;20020;-75
2022/08/14 10:26:08;;;;;;;9.30;5.82;;;;;;;39.24;19.80;100732.06;4934744;29;20522;-76
2022/08/14 10:28:43;;;;;;;11.13;5.85;;;;;;;38.69;20.16;100733.63;4934599;29;20028;-76
2022/08/14 10:31:30;;;;;;;16.75;6.47;;;;;;;38.13;20.86;100730.19;4934219;29;20155;-75
2022/08/14 10:34:18;;;;;;;14.20;6.22;;;;;;;37.88;21.36;100715.63;4934560;29;20048;-77
2022/08/14 10:36:47;;;;;;;10.88;5.47;;;;;;;37.44;21.06;100718.69;4934049;29;20043;-75
2022/08/14 10:39:24;;;;;;;9.80;5.45;;;;;;;37.70;21.06;100715.25;4934619;29;20091;-75
2022/08/14 10:41:59;;;;;;;9.90;5.65;;;;;;;39.04;19.32;100717.31;4935885;29;20031;-75
2022/08/14 10:44:35;;;;;;;12.05;5.63;;;;;;;38.92;18.86;100709.09;4934334;29;20032;-75
2022/08/14 10:47:08;;;;;;;8.85;4.82;;;;;;;39.65;18.09;100711.72;4936291;29;20386;-78
2022/08/14 10:49:35;;;;;;;9.63;4.10;;;;;;;40.28;17.31;100705.19;4936657;29;20051;-75
2022/08/14 10:52:08;;;;;;;9.70;4.75;;;;;;;39.32;17.86;100710.47;4934156;29;20059;-76
2022/08/14 10:54:37;;;;;;;8.15;5.28;;;;;;;38.31;19.68;100707.22;4934223;29;20031;-76
2022/08/14 10:57:26;;;;;;;11.82;6.15;;;;;;;38.44;19.74;100708.69;4934264;29;20095;-76
2022/08/14 10:59:59;;;;;;;17.23;5.70;;;;;;;37.95;19.57;100712.16;4934746;29;20190;-76
2022/08/14 11:02:27;;;;;;;16.02;5.75;;;;;;;38.39;19.59;100706.16;4937188;29;20059;-78
2022/08/14 11:04:59;;;;;;;13.57;5.10;;;;;;;38.64;19.57;100698.16;4935708;29;20456;-75
2022/08/14 11:07:25;;;;;;;8.75;4.82;;;;;;;38.05;19.06;100700.34;4933664;29;20099;-75
2022/08/14 11:10:04;;;;;;;12.75;4.70;;;;;;;37.74;18.84;100690.06;4933908;29;20032;-77
2022/08/14 11:12:59;;;;;;;19.35;6.03;;;;;;;38.16;20.37;100692.91;4934186;29;20481;-77
2022/08/14 11:15:27;;;;;;;11.85;5.93;;;;;;;39.37;20.02;100695.28;4935876;29;20043;-75
2022/08/14 11:17:55;;;;;;;12.70;6.30;;;;;;;39.55;19.51;100689.84;4938426;29;20361;-75
2022/08/14 11:20:23;;;;;;;9.63;5.15;;;;;;;39.80;18.37;100693.81;4936040;29;20035;-77
2022/08/14 11:22:53;;;;;;;9.43;4.97;;;;;;;38.34;17.92;100681.16;4935078;29;20040;-76
2022/08/14 11:25:22;;;;;;;6.90;4.40;;;;;;;38.59;18.38;100690.06;4934357;29;20059;-76
2022/08/14 11:27:48;;;;;;;6.45;4.38;;;;;;;38.09;18.23;100691.97;4933290;29;20340;-75
2022/08/14 11:30:18;;;;;;;13.63;5.47;;;;;;;37.63;19.52;100694.63;4933615;29;20028;-76
2022/08/14 11:32:47;;;;;;;11.57;5.68;;;;;;;36.20;21.28;100694.81;4934444;29;20092;-77